createdAt,value
2022-11-10T00:02:06.198Z,1.90
2022-11-10T00:05:37.320Z,2.20
2022-11-10T00:09:13.245Z,2.60
2022-11-10T00:12:32.226Z,1.77
2022-11-10T00:16:09.214Z,2.20
2022-11-10T00:19:28.249Z,1.73
2022-11-10T00:23:03.239Z,2.20
2022-11-10T00:26:39.279Z,2.00
2022-11-10T00:30:10.255Z,1.70
2022-11-10T00:33:29.267Z,2.27
2022-11-10T00:36:48.270Z,1.80
2022-11-10T00:40:10.291Z,2.10
2022-11-10T00:43:43.309Z,2.20
2022-11-10T00:47:02.303Z,1.90
2022-11-10T00:50:21.458Z,1.80
2022-11-10T00:53:39.374Z,2.20
2022-11-10T00:56:58.364Z,1.87
2022-11-10T01:00:31.343Z,2.67
2022-11-10T01:04:01.396Z,2.07
2022-11-10T01:07:20.380Z,1.83
2022-11-10T01:10:39.377Z,2.00
2022-11-10T01:14:10.404Z,1.93
2022-11-10T01:17:49.546Z,1.93
2022-11-10T01:21:08.479Z,1.60
2022-11-10T01:24:38.468Z,1.57
2022-11-10T01:27:57.497Z,1.90
2022-11-10T01:31:28.453Z,2.80
2022-11-10T01:35:01.455Z,2.65
2022-11-10T01:38:20.513Z,2.33
2022-11-10T01:41:39.482Z,2.70
2022-11-10T01:45:19.498Z,2.30
2022-11-10T01:48:51.561Z,2.15
2022-11-10T01:52:23.675Z,2.20
2022-11-10T01:55:57.697Z,2.30
2022-11-10T01:59:28.653Z,4.25
2022-11-10T02:02:59.578Z,2.13
2022-11-10T02:06:34.616Z,2.40
2022-11-10T02:10:06.599Z,2.40
2022-11-10T02:13:25.642Z,1.85
2022-11-10T02:16:55.618Z,2.40
2022-11-10T02:20:26.658Z,2.50
2022-11-10T02:24:08.626Z,2.50
2022-11-10T02:27:32.644Z,2.60
2022-11-10T02:30:50.667Z,2.10
2022-11-10T02:34:09.666Z,2.07
2022-11-10T02:37:39.685Z,2.55
2022-11-10T02:41:12.795Z,2.30
2022-11-10T02:44:43.681Z,2.33
2022-11-10T02:48:05.732Z,2.25
2022-11-10T02:51:35.710Z,2.63
2022-11-10T02:54:54.723Z,2.30
2022-11-10T02:58:27.741Z,2.20
2022-11-10T03:01:46.802Z,3.03
2022-11-10T03:05:05.868Z,2.75
2022-11-10T03:08:27.802Z,3.35
2022-11-10T03:11:45.796Z,2.77
2022-11-10T03:15:21.787Z,3.10
2022-11-10T03:18:29.146Z,3.17
2022-11-10T03:21:47.826Z,3.93
2022-11-10T03:25:06.831Z,3.00
2022-11-10T03:28:25.972Z,3.40
2022-11-10T03:31:58.806Z,2.55
2022-11-10T03:35:32.828Z,3.20
2022-11-10T03:39:03.861Z,3.20
2022-11-10T03:42:34.876Z,3.50
2022-11-10T03:46:07.884Z,3.80
2022-11-10T03:49:41.034Z,2.80
2022-11-10T03:53:11.915Z,3.47
2022-11-10T03:56:31.908Z,3.60
2022-11-10T03:59:50.944Z,4.30
2022-11-10T04:03:09.968Z,3.10
2022-11-10T04:06:48.614Z,3.10
2022-11-10T04:10:08.010Z,3.73
2022-11-10T04:13:32.898Z,3.77
2022-11-10T04:16:52.023Z,3.47
2022-11-10T04:20:10.032Z,3.70
2022-11-10T04:23:43.980Z,5.23
2022-11-10T04:27:01.991Z,4.45
2022-11-10T04:30:23.995Z,4.35
2022-11-10T04:33:43.010Z,5.60
2022-11-10T04:37:05.050Z,5.40
2022-11-10T04:40:38.101Z,3.47
2022-11-10T04:44:09.113Z,4.40
2022-11-10T04:47:28.104Z,4.20
2022-11-10T04:51:04.110Z,3.93
2022-11-10T04:54:35.125Z,5.10
2022-11-10T04:58:08.129Z,3.87
2022-11-10T05:01:42.104Z,4.07
2022-11-10T05:05:01.116Z,4.40
2022-11-10T05:08:32.146Z,4.43
2022-11-10T05:11:50.173Z,4.73
2022-11-10T05:15:22.276Z,5.03
2022-11-10T05:18:41.227Z,5.00
2022-11-10T05:22:00.174Z,5.00
2022-11-10T05:25:20.251Z,4.85
2022-11-10T05:28:39.227Z,4.65
2022-11-10T05:32:11.242Z,4.70
2022-11-10T05:35:33.292Z,5.37
2022-11-10T05:38:52.248Z,5.00
2022-11-10T05:42:10.297Z,5.63
2022-11-10T05:45:29.324Z,5.35
2022-11-10T05:49:05.235Z,5.80
2022-11-10T05:52:24.304Z,4.40
2022-11-10T05:55:58.301Z,4.33
2022-11-10T05:59:20.304Z,4.73
2022-11-10T06:02:39.334Z,5.43
2022-11-10T06:06:12.333Z,5.20
2022-11-10T06:09:31.356Z,5.40
2022-11-10T06:12:50.342Z,5.55
2022-11-10T06:16:08.342Z,5.30
2022-11-10T06:19:27.345Z,4.90
2022-11-10T06:23:03.390Z,4.33
2022-11-10T06:26:22.356Z,4.75
2022-11-10T06:29:41.391Z,4.45
2022-11-10T06:33:00.445Z,4.55
2022-11-10T06:36:22.628Z,5.43
2022-11-10T06:39:58.443Z,4.40
2022-11-10T06:43:16.480Z,4.15
2022-11-10T06:46:41.065Z,4.50
2022-11-10T06:49:53.468Z,4.57
2022-11-10T06:53:27.012Z,4.53
2022-11-10T06:56:59.435Z,4.37
2022-11-10T07:00:19.453Z,4.77
2022-11-10T07:03:44.459Z,4.87
2022-11-10T07:06:56.562Z,4.45
2022-11-10T07:10:14.497Z,4.67
2022-11-10T07:13:49.504Z,5.20
2022-11-10T07:17:20.528Z,4.40
2022-11-10T07:20:39.589Z,4.40
2022-11-10T07:23:59.696Z,4.37
2022-11-10T07:27:18.647Z,4.70
2022-11-10T07:30:51.546Z,4.40
2022-11-10T07:34:09.620Z,4.40
2022-11-10T07:37:27.595Z,4.70
2022-11-10T07:40:58.630Z,4.90
2022-11-10T07:44:17.611Z,4.85
2022-11-10T07:47:53.611Z,5.15
2022-11-10T07:51:14.647Z,5.43
2022-11-10T07:54:33.698Z,5.20
2022-11-10T07:57:52.631Z,5.03
2022-11-10T08:01:11.713Z,5.70
2022-11-10T08:04:43.695Z,5.43
2022-11-10T08:08:02.759Z,4.90
2022-11-10T08:11:20.750Z,5.00
2022-11-10T08:14:39.737Z,4.80
2022-11-10T08:17:58.745Z,4.87
2022-11-10T08:21:31.720Z,5.13
2022-11-10T08:24:49.740Z,5.33
2022-11-10T08:28:26.845Z,4.80
2022-11-10T08:31:59.806Z,5.05
2022-11-10T08:35:18.785Z,4.73
2022-11-10T08:38:50.804Z,5.23
2022-11-10T08:42:08.804Z,4.60
2022-11-10T08:45:42.870Z,4.30
2022-11-10T08:49:01.794Z,4.70
2022-11-10T08:52:19.848Z,4.73
2022-11-10T08:55:52.864Z,4.10
2022-11-10T08:59:13.854Z,4.15
2022-11-10T09:02:31.860Z,3.95
2022-11-10T09:05:56.672Z,4.33
2022-11-10T09:09:08.933Z,4.57
2022-11-10T09:12:41.937Z,4.27
2022-11-10T09:16:00.905Z,3.75
2022-11-10T09:19:20.202Z,4.83
2022-11-10T09:22:37.931Z,4.27
2022-11-10T09:26:08.929Z,3.90
2022-11-10T09:29:40.922Z,4.50
2022-11-10T09:33:11.944Z,4.60
2022-11-10T09:36:30.939Z,4.30
2022-11-10T09:39:48.992Z,3.60
2022-11-10T09:43:20.191Z,3.60
2022-11-10T09:46:53.002Z,3.50
2022-11-10T09:50:24.013Z,4.33
2022-11-10T09:53:55.019Z,3.87
2022-11-10T09:57:26.031Z,4.50
2022-11-10T10:01:00.065Z,3.33
2022-11-10T10:04:35.117Z,3.47
2022-11-10T10:08:07.132Z,3.35
2022-11-10T10:11:40.067Z,2.73
2022-11-10T10:15:19.067Z,3.25
2022-11-10T10:18:50.109Z,3.90
2022-11-10T10:22:27.083Z,2.83
2022-11-10T10:25:46.115Z,3.10
2022-11-10T10:29:16.124Z,3.20
2022-11-10T10:32:35.137Z,3.00
2022-11-10T10:36:06.164Z,2.90
2022-11-10T10:39:41.165Z,3.20
2022-11-10T10:43:12.152Z,3.07
2022-11-10T10:46:42.198Z,3.83
2022-11-10T10:50:04.237Z,3.17
2022-11-10T10:53:37.211Z,3.05
2022-11-10T10:57:09.233Z,3.17
2022-11-10T11:00:43.279Z,2.67
2022-11-10T11:04:13.345Z,2.93
2022-11-10T11:07:44.258Z,3.03
2022-11-10T11:11:03.346Z,3.80
2022-11-10T11:14:44.697Z,2.30
2022-11-10T11:18:15.282Z,2.70
2022-11-10T11:21:47.301Z,2.40
2022-11-10T11:25:18.270Z,2.50
2022-11-10T11:28:49.326Z,3.40
2022-11-10T11:32:22.348Z,2.75
2022-11-10T11:35:53.295Z,3.00
2022-11-10T11:39:24.323Z,3.25
2022-11-10T11:42:58.495Z,2.77
2022-11-10T11:46:30.346Z,3.05
2022-11-10T11:50:06.366Z,2.87
2022-11-10T11:53:38.353Z,2.80
2022-11-10T11:57:08.373Z,2.80
2022-11-10T12:00:40.421Z,2.83
2022-11-10T12:04:13.460Z,2.67
2022-11-10T12:07:52.445Z,3.10
2022-11-10T12:11:27.476Z,3.00
2022-11-10T12:14:59.464Z,2.50
2022-11-10T12:18:32.528Z,2.60
2022-11-10T12:22:10.644Z,2.10
2022-11-10T12:25:44.481Z,3.40
2022-11-10T12:29:16.490Z,2.40
2022-11-10T12:32:47.517Z,1.93
2022-11-10T12:36:20.527Z,2.63
2022-11-10T12:39:51.545Z,3.00
2022-11-10T12:43:24.949Z,2.17
2022-11-10T12:46:54.591Z,2.90
2022-11-10T12:50:37.561Z,2.80
2022-11-10T12:54:11.101Z,2.30
2022-11-10T12:57:38.573Z,2.60
2022-11-10T13:01:14.645Z,2.20
2022-11-10T13:04:33.621Z,2.40
2022-11-10T13:07:51.645Z,2.73
2022-11-10T13:11:26.631Z,2.27
2022-11-10T13:14:57.651Z,2.70
2022-11-10T13:18:29.623Z,2.65
2022-11-10T13:22:07.700Z,2.00
2022-11-10T13:25:44.666Z,2.80
2022-11-10T13:29:22.684Z,2.87
2022-11-10T13:32:53.703Z,1.87
2022-11-10T13:36:28.718Z,2.00
2022-11-10T13:39:59.716Z,1.80
2022-11-10T13:43:51.793Z,2.60
2022-11-10T13:47:28.742Z,1.80
2022-11-10T13:51:05.718Z,2.03
2022-11-10T13:54:44.796Z,1.83
2022-11-10T13:58:24.258Z,2.20
2022-11-10T14:01:42.791Z,2.20
2022-11-10T14:05:01.786Z,2.40
2022-11-10T14:08:34.776Z,2.10
2022-11-10T14:12:06.804Z,2.40
2022-11-10T14:15:37.817Z,2.50
2022-11-10T14:19:07.836Z,2.00
2022-11-10T14:22:39.816Z,2.50
2022-11-10T14:26:10.862Z,1.90
2022-11-10T14:29:46.852Z,2.30
2022-11-10T14:33:19.884Z,2.57
2022-11-10T14:36:38.887Z,1.83
2022-11-10T14:40:09.893Z,1.73
2022-11-10T14:43:51.979Z,2.30
2022-11-10T14:47:22.918Z,2.00
2022-11-10T14:50:53.934Z,2.00
2022-11-10T14:54:24.944Z,1.90
2022-11-10T14:57:46.967Z,1.50
2022-11-10T15:01:17.139Z,1.50
2022-11-10T15:04:50.986Z,1.80
2022-11-10T15:08:22.248Z,2.43
2022-11-10T15:12:00.011Z,1.55
2022-11-10T15:15:39.008Z,2.13
2022-11-10T15:18:59.029Z,2.50
2022-11-10T15:22:32.083Z,1.65
2022-11-10T15:26:02.085Z,1.57
2022-11-10T15:29:41.074Z,1.80
2022-11-10T15:33:02.516Z,2.00
2022-11-10T15:36:40.168Z,1.85
2022-11-10T15:40:17.080Z,2.25
2022-11-10T15:43:41.058Z,1.90
2022-11-10T15:47:11.099Z,1.45
2022-11-10T15:50:29.126Z,1.77
2022-11-10T15:54:06.143Z,2.03
2022-11-10T15:57:38.118Z,1.75
2022-11-10T16:01:12.308Z,1.80
2022-11-10T16:04:46.143Z,1.80
2022-11-10T16:08:04.174Z,1.97
2022-11-10T16:11:38.345Z,2.07
2022-11-10T16:15:11.169Z,2.10
2022-11-10T16:18:43.961Z,2.15
2022-11-10T16:22:01.186Z,2.00
2022-11-10T16:25:27.805Z,1.80
2022-11-10T16:28:57.288Z,1.80
2022-11-10T16:32:33.311Z,2.10
2022-11-10T16:36:04.245Z,2.10
2022-11-10T16:39:35.272Z,2.00
2022-11-10T16:42:54.308Z,1.60
2022-11-10T16:46:25.317Z,2.00
2022-11-10T16:49:57.321Z,1.60
2022-11-10T16:53:30.288Z,1.50
2022-11-10T16:56:48.337Z,1.45
2022-11-10T17:00:07.374Z,2.00
2022-11-10T17:03:37.390Z,1.60
2022-11-10T17:07:10.408Z,2.40
2022-11-10T17:10:41.360Z,1.40
2022-11-10T17:14:00.351Z,2.55
2022-11-10T17:17:18.400Z,1.73
2022-11-10T17:20:49.405Z,2.25
2022-11-10T17:24:22.405Z,1.30
2022-11-10T17:27:41.442Z,1.77
2022-11-10T17:31:00.407Z,2.10
2022-11-10T17:34:19.536Z,2.25
2022-11-10T17:37:50.436Z,1.50
2022-11-10T17:41:26.475Z,1.70
2022-11-10T17:44:49.547Z,2.20
2022-11-10T17:48:20.457Z,1.80
2022-11-10T17:51:39.466Z,1.80
2022-11-10T17:55:09.484Z,1.80
2022-11-10T17:58:41.538Z,1.90
2022-11-10T18:02:00.504Z,1.15
2022-11-10T18:05:20.520Z,1.50
2022-11-10T18:08:39.554Z,1.80
2022-11-10T18:12:04.530Z,1.75
2022-11-10T18:15:37.555Z,1.35
2022-11-10T18:18:56.588Z,1.90
2022-11-10T18:22:15.597Z,1.80
2022-11-10T18:25:33.743Z,1.40
2022-11-10T18:28:55.591Z,2.00
2022-11-10T18:32:28.584Z,1.30
2022-11-10T18:35:59.613Z,0.93
2022-11-10T18:39:17.645Z,2.40
2022-11-10T18:42:36.632Z,1.65
2022-11-10T18:45:54.685Z,1.90
2022-11-10T18:49:26.682Z,1.60
2022-11-10T18:52:45.684Z,1.85
2022-11-10T18:56:07.693Z,1.95
2022-11-10T18:59:25.706Z,1.60
2022-11-10T19:02:43.703Z,1.40
2022-11-10T19:06:14.731Z,1.10
2022-11-10T19:09:44.706Z,1.50
2022-11-10T19:13:02.781Z,1.63
2022-11-10T19:16:36.748Z,1.25
2022-11-10T19:19:56.882Z,1.40
2022-11-10T19:23:31.781Z,1.40
2022-11-10T19:26:49.791Z,1.50
2022-11-10T19:30:08.790Z,1.60
2022-11-10T19:33:26.856Z,1.87
2022-11-10T19:36:44.789Z,1.30
2022-11-10T19:40:16.829Z,1.93
2022-11-10T19:43:35.861Z,1.40
2022-11-10T19:46:53.845Z,1.80
2022-11-10T19:50:11.860Z,1.45
2022-11-10T19:53:30.864Z,1.65
2022-11-10T19:57:01.918Z,1.30
2022-11-10T20:00:20.912Z,1.60
2022-11-10T20:03:52.901Z,1.60
2022-11-10T20:07:17.643Z,1.93
2022-11-10T20:10:36.921Z,1.85
2022-11-10T20:14:08.942Z,1.90
2022-11-10T20:17:27.934Z,1.50
2022-11-10T20:20:46.952Z,2.20
2022-11-10T20:24:21.085Z,1.30
2022-11-10T20:27:41.929Z,2.20
2022-11-10T20:31:14.951Z,1.63
2022-11-10T20:34:33.038Z,1.40
2022-11-10T20:37:50.986Z,1.60
2022-11-10T20:41:26.090Z,2.73
2022-11-10T20:44:45.042Z,1.77
2022-11-10T20:48:17.031Z,1.97
2022-11-10T20:51:36.082Z,1.60
2022-11-10T20:55:01.514Z,2.10
2022-11-10T20:58:20.078Z,1.50
2022-11-10T21:01:51.109Z,1.90
2022-11-10T21:05:30.080Z,1.50
2022-11-10T21:09:00.090Z,1.50
2022-11-10T21:12:24.423Z,1.75
2022-11-10T21:15:43.101Z,2.33
2022-11-10T21:19:19.120Z,2.00
2022-11-10T21:22:52.147Z,1.60
2022-11-10T21:26:23.160Z,1.73
2022-11-10T21:29:44.143Z,1.57
2022-11-10T21:33:03.144Z,1.97
2022-11-10T21:36:22.222Z,1.90
2022-11-10T21:39:55.172Z,1.90
2022-11-10T21:43:14.217Z,2.25
2022-11-10T21:46:33.218Z,1.70
2022-11-10T21:50:04.232Z,1.85
2022-11-10T21:53:23.579Z,2.50
2022-11-10T21:56:56.264Z,2.40
2022-11-10T22:00:18.263Z,2.60
2022-11-10T22:03:36.320Z,1.47
2022-11-10T22:07:01.274Z,2.10
2022-11-10T22:10:37.706Z,2.13
2022-11-10T22:14:16.830Z,2.13
2022-11-10T22:17:42.393Z,2.57
2022-11-10T22:21:01.331Z,2.15
2022-11-10T22:24:38.333Z,2.53
2022-11-10T22:27:57.363Z,2.30
2022-11-10T22:31:30.385Z,2.15
2022-11-10T22:34:49.322Z,2.00
2022-11-10T22:38:08.401Z,2.50
2022-11-10T22:41:45.269Z,2.70
2022-11-10T22:45:03.384Z,2.10
2022-11-10T22:48:44.455Z,2.10
2022-11-10T22:52:18.468Z,2.57
2022-11-10T22:55:36.415Z,2.55
2022-11-10T22:58:59.651Z,2.50
2022-11-10T23:02:13.479Z,2.67
2022-11-10T23:05:45.447Z,2.70
2022-11-10T23:09:16.537Z,2.85
2022-11-10T23:12:38.501Z,2.80
2022-11-10T23:15:56.617Z,2.67
2022-11-10T23:19:27.492Z,3.20
2022-11-10T23:22:59.585Z,2.20
2022-11-10T23:26:30.508Z,2.53
2022-11-10T23:29:52.638Z,2.47
2022-11-10T23:33:11.529Z,2.67
2022-11-10T23:36:42.543Z,2.47
2022-11-10T23:40:18.580Z,2.97
2022-11-10T23:43:54.566Z,2.80
2022-11-10T23:47:12.621Z,3.00
2022-11-10T23:50:31.559Z,3.47
2022-11-10T23:54:08.593Z,2.80
2022-11-10T23:57:41.632Z,3.07
